Stuart, FL (34997)

9:27 AM EDT on October 25, 2014 (GMT -0400)
Parkwood | Change Station
CLOSE
Current Station
Personal Weather Station
Location: Stuart, FL
Elevation: 26 ft
Nearby Weather Stations

Elev 26 ft 27.12 °N, 80.20 °W | Updated 17 minutes ago

Scattered Clouds
Scattered Clouds
70.6 °F
Feels Like 72 °F
N
6.0
Wind Variable Wind from NW
Gusts 6.0 mph

Today
High -- | Low -- °F
--% Chance of Precip.
Yesterday
High -- | Low -- °F
Precip. -- in
7:26 AM 6:43 PM
Waxing Crescent, 3% visible
Pressure 29.95 in
Visibility 7.0 miles
Clouds Scattered Clouds 4500 ft
Heat Index 72 °F
Dew Point 63 °F
Humidity 77%
Rainfall 0.00 in
Snow Depth Not available.
UV 1 out of 12
Pollen 4.50 out of 12
Air Quality Not available.
Flu Activity Local Activity
METAR KSUA 251247Z 32006KT 7SM SCT045 19/15 A2995

More Conditions Fewer Conditions

Pressure 29.95 in
Visibility 7.0 miles
Clouds Scattered Clouds 4500 ft
Heat Index 72 °F
Dew Point 63 °F
Humidity 77%
Rainfall 0.00 in
Snow Depth Not available.
UV 1 out of 12
Pollen 4.50 out of 12
Air Quality Not available.
Flu Activity Local Activity
METAR KSUA 251247Z 32006KT 7SM SCT045 19/15 A2995

More Conditions Fewer Conditions

Nowcast | as of 8:31 am EDT on October 25, 2014

Dry and pleasant fall conditions expected today with high pressure to the north. Temperatures climbing into the upper 70s near the coast and lower 80s well inland under partly to mostly sunny skies. Small craft should exercise caution over the Gulf Stream waters. Additional details...including graphics are available online at: http://www.Srh.NOAA.Gov/mlb/blog.Php

×

10-Day Weather Forecast

Almanac

Astronomy

Oct. 25, 2014 Rise Set
Actual Time 7:26 AM EDT 6:43 PM EDT
Civil Twilight 7:02 AM EDT 7:06 PM EDT
Nautical Twilight 6:35 AM EDT 7:34 PM EDT
Astronomical Twilight 6:08 AM EDT 8:01 PM EDT
Moon 8:57 AM EDT 8:12 PM EDT
Length of Visible Light 12h 04m
Length of Day
11h 16m
Tomorrow will be 1m 27s shorter.
Waxing Crescent, 3% of the Moon is Illuminated
Today
Waxing Crescent
Oct 30
First Quarter
Nov 6
Full
Nov 14
Last Quarter
Nov 22
New

Today's Extremes

State Highs State Lows

Community

WunderPhotos

Upload Photos

1,764,829 photos uploaded!

Nearby

Snow Depth

Station Depth Elevation
No new snow has been reported.

Earthquake Activity

City Distance Mag. Time & Date
No recent earthquake activity has been reported nearby.
Minimum magnitude displayed is 2.5.

Coastal Water Temperatures

Place Temperature
Lake Worth, FL 78.1 °F
Trident Pier, FL 78.1 °F
Virginia Key, FL 78.1 °F

Nearby Weather Stations